sensor_id;sensor_type;location;lat;lon;timestamp;temperature;humidity
1786;DHT22;890;48.158;11.540;2023-08-08T00:01:43;14.60;79.30
1786;DHT22;890;48.158;11.540;2023-08-08T00:04:10;14.70;79.20
1786;DHT22;890;48.158;11.540;2023-08-08T00:06:36;14.70;78.80
1786;DHT22;890;48.158;11.540;2023-08-08T00:09:02;14.80;79.00
1786;DHT22;890;48.158;11.540;2023-08-08T00:11:29;14.70;78.60
1786;DHT22;890;48.158;11.540;2023-08-08T00:13:55;15.80;79.70
1786;DHT22;890;48.158;11.540;2023-08-08T00:16:22;14.70;78.60
1786;DHT22;890;48.158;11.540;2023-08-08T00:18:47;14.80;78.40
1786;DHT22;890;48.158;11.540;2023-08-08T00:21:15;14.80;78.40
1786;DHT22;890;48.158;11.540;2023-08-08T00:23:40;14.80;78.30
1786;DHT22;890;48.158;11.540;2023-08-08T00:26:06;14.80;78.00
1786;DHT22;890;48.158;11.540;2023-08-08T00:28:31;14.70;78.00
1786;DHT22;890;48.158;11.540;2023-08-08T00:30:57;14.80;78.10
1786;DHT22;890;48.158;11.540;2023-08-08T00:33:23;14.70;78.70
1786;DHT22;890;48.158;11.540;2023-08-08T00:35:48;14.80;77.80
1786;DHT22;890;48.158;11.540;2023-08-08T00:38:14;14.70;77.70
1786;DHT22;890;48.158;11.540;2023-08-08T00:40:41;14.70;78.60
1786;DHT22;890;48.158;11.540;2023-08-08T00:43:07;14.80;78.00
1786;DHT22;890;48.158;11.540;2023-08-08T00:45:33;14.80;78.00
1786;DHT22;890;48.158;11.540;2023-08-08T00:47:59;14.80;77.90
1786;DHT22;890;48.158;11.540;2023-08-08T00:50:25;14.80;78.00
1786;DHT22;890;48.158;11.540;2023-08-08T00:52:51;14.80;77.80
1786;DHT22;890;48.158;11.540;2023-08-08T00:55:18;14.80;77.80
1786;DHT22;890;48.158;11.540;2023-08-08T00:57:44;14.70;77.80
1786;DHT22;890;48.158;11.540;2023-08-08T01:00:09;14.70;77.70
1786;DHT22;890;48.158;11.540;2023-08-08T01:02:36;14.70;77.60
1786;DHT22;890;48.158;11.540;2023-08-08T01:05:03;14.70;77.70
1786;DHT22;890;48.158;11.540;2023-08-08T01:07:54;14.70;77.70
1786;DHT22;890;48.158;11.540;2023-08-08T01:10:29;14.60;77.30
1786;DHT22;890;48.158;11.540;2023-08-08T01:13:00;14.70;77.60
1786;DHT22;890;48.158;11.540;2023-08-08T01:15:29;14.70;77.60
1786;DHT22;890;48.158;11.540;2023-08-08T01:17:57;14.70;77.70
1786;DHT22;890;48.158;11.540;2023-08-08T01:20:23;14.60;77.60
1786;DHT22;890;48.158;11.540;2023-08-08T01:23:18;14.70;77.70
1786;DHT22;890;48.158;11.540;2023-08-08T01:25:44;14.60;77.40
1786;DHT22;890;48.158;11.540;2023-08-08T01:28:11;14.70;77.70
1786;DHT22;890;48.158;11.540;2023-08-08T01:30:37;14.70;77.60
1786;DHT22;890;48.158;11.540;2023-08-08T01:33:04;14.70;77.60
1786;DHT22;890;48.158;11.540;2023-08-08T01:35:31;14.70;77.40
1786;DHT22;890;48.158;11.540;2023-08-08T01:38:07;14.60;77.80
1786;DHT22;890;48.158;11.540;2023-08-08T01:40:35;14.60;77.70
1786;DHT22;890;48.158;11.540;2023-08-08T01:43:01;14.60;77.90
1786;DHT22;890;48.158;11.540;2023-08-08T01:45:29;14.60;78.00
1786;DHT22;890;48.158;11.540;2023-08-08T01:47:55;14.60;77.90
1786;DHT22;890;48.158;11.540;2023-08-08T01:50:21;14.60;77.90
1786;DHT22;890;48.158;11.540;2023-08-08T01:52:47;14.50;78.00
1786;DHT22;890;48.158;11.540;2023-08-08T01:55:12;14.50;78.10
1786;DHT22;890;48.158;11.540;2023-08-08T01:57:38;14.40;78.00
1786;DHT22;890;48.158;11.540;2023-08-08T02:00:06;14.40;78.10
1786;DHT22;890;48.158;11.540;2023-08-08T02:02:33;14.40;78.40
1786;DHT22;890;48.158;11.540;2023-08-08T02:05:01;14.40;78.20
1786;DHT22;890;48.158;11.540;2023-08-08T02:07:26;14.30;78.10
1786;DHT22;890;48.158;11.540;2023-08-08T02:09:52;14.30;78.20
1786;DHT22;890;48.158;11.540;2023-08-08T02:12:18;14.30;78.40
1786;DHT22;890;48.158;11.540;2023-08-08T02:14:43;14.30;78.30
1786;DHT22;890;48.158;11.540;2023-08-08T02:17:09;14.30;79.00
1786;DHT22;890;48.158;11.540;2023-08-08T02:19:34;14.20;78.50
1786;DHT22;890;48.158;11.540;2023-08-08T02:22:00;14.20;78.60
1786;DHT22;890;48.158;11.540;2023-08-08T02:24:25;14.20;78.50
1786;DHT22;890;48.158;11.540;2023-08-08T02:26:51;14.20;78.40
1786;DHT22;890;48.158;11.540;2023-08-08T02:29:16;14.30;78.60
1786;DHT22;890;48.158;11.540;2023-08-08T02:31:42;14.10;78.50
1786;DHT22;890;48.158;11.540;2023-08-08T02:34:07;14.10;78.40
1786;DHT22;890;48.158;11.540;2023-08-08T02:36:33;14.00;78.40
1786;DHT22;890;48.158;11.540;2023-08-08T02:38:59;13.90;78.70
1786;DHT22;890;48.158;11.540;2023-08-08T02:41:24;13.90;78.70
1786;DHT22;890;48.158;11.540;2023-08-08T02:43:50;13.90;78.60
1786;DHT22;890;48.158;11.540;2023-08-08T02:46:16;13.90;78.60
1786;DHT22;890;48.158;11.540;2023-08-08T02:48:41;13.90;78.70
1786;DHT22;890;48.158;11.540;2023-08-08T02:51:07;13.90;78.70
1786;DHT22;890;48.158;11.540;2023-08-08T02:53:32;13.90;78.90
1786;DHT22;890;48.158;11.540;2023-08-08T02:55:58;13.90;78.90
1786;DHT22;890;48.158;11.540;2023-08-08T02:58:23;14.00;79.00
1786;DHT22;890;48.158;11.540;2023-08-08T03:00:49;14.00;79.00
1786;DHT22;890;48.158;11.540;2023-08-08T03:03:15;13.90;78.90
1786;DHT22;890;48.158;11.540;2023-08-08T03:05:40;13.90;79.00
1786;DHT22;890;48.158;11.540;2023-08-08T03:08:06;13.90;79.00
1786;DHT22;890;48.158;11.540;2023-08-08T03:10:31;13.90;78.70
1786;DHT22;890;48.158;11.540;2023-08-08T03:12:57;13.90;78.70
1786;DHT22;890;48.158;11.540;2023-08-08T03:15:23;14.00;78.40
1786;DHT22;890;48.158;11.540;2023-08-08T03:17:48;14.00;78.20
1786;DHT22;890;48.158;11.540;2023-08-08T03:20:14;13.90;78.30
1786;DHT22;890;48.158;11.540;2023-08-08T03:22:40;14.00;78.40
1786;DHT22;890;48.158;11.540;2023-08-08T03:25:06;14.00;78.20
1786;DHT22;890;48.158;11.540;2023-08-08T03:27:32;14.10;78.30
1786;DHT22;890;48.158;11.540;2023-08-08T03:29:58;14.10;77.90
1786;DHT22;890;48.158;11.540;2023-08-08T03:32:23;14.10;78.00
1786;DHT22;890;48.158;11.540;2023-08-08T03:34:49;14.20;77.90
1786;DHT22;890;48.158;11.540;2023-08-08T03:37:14;14.20;77.70
1786;DHT22;890;48.158;11.540;2023-08-08T03:39:40;14.20;77.50
1786;DHT22;890;48.158;11.540;2023-08-08T03:42:06;14.20;77.50
1786;DHT22;890;48.158;11.540;2023-08-08T03:44:32;14.30;77.60
1786;DHT22;890;48.158;11.540;2023-08-08T03:46:57;13.80;76.80
1786;DHT22;890;48.158;11.540;2023-08-08T03:49:23;14.40;77.20
1786;DHT22;890;48.158;11.540;2023-08-08T03:51:48;14.40;77.20
1786;DHT22;890;48.158;11.540;2023-08-08T03:54:14;14.40;77.00
1786;DHT22;890;48.158;11.540;2023-08-08T03:56:40;14.40;76.80
1786;DHT22;890;48.158;11.540;2023-08-08T03:59:06;14.60;77.10
1786;DHT22;890;48.158;11.540;2023-08-08T04:01:32;14.40;76.80
1786;DHT22;890;48.158;11.540;2023-08-08T04:03:58;14.40;76.70
1786;DHT22;890;48.158;11.540;2023-08-08T04:06:24;14.40;76.70
1786;DHT22;890;48.158;11.540;2023-08-08T04:08:49;14.40;76.90
1786;DHT22;890;48.158;11.540;2023-08-08T04:11:15;14.50;77.20
1786;DHT22;890;48.158;11.540;2023-08-08T04:13:41;14.40;76.90
1786;DHT22;890;48.158;11.540;2023-08-08T04:16:06;12.40;74.70
1786;DHT22;890;48.158;11.540;2023-08-08T04:18:32;14.40;76.90
1786;DHT22;890;48.158;11.540;2023-08-08T04:20:57;14.40;77.00
1786;DHT22;890;48.158;11.540;2023-08-08T04:23:23;14.50;77.00
1786;DHT22;890;48.158;11.540;2023-08-08T04:25:51;14.50;77.00
1786;DHT22;890;48.158;11.540;2023-08-08T04:28:17;14.60;77.20
1786;DHT22;890;48.158;11.540;2023-08-08T04:30:42;14.60;77.10
1786;DHT22;890;48.158;11.540;2023-08-08T04:33:08;14.70;77.10
1786;DHT22;890;48.158;11.540;2023-08-08T04:35:33;14.70;77.10
1786;DHT22;890;48.158;11.540;2023-08-08T04:37:59;14.70;76.80
1786;DHT22;890;48.158;11.540;2023-08-08T04:40:26;14.70;76.90
1786;DHT22;890;48.158;11.540;2023-08-08T04:42:51;14.80;77.10
1786;DHT22;890;48.158;11.540;2023-08-08T04:45:17;14.70;77.00
1786;DHT22;890;48.158;11.540;2023-08-08T04:47:43;14.70;76.90
1786;DHT22;890;48.158;11.540;2023-08-08T04:50:09;14.70;77.00
1786;DHT22;890;48.158;11.540;2023-08-08T04:52:35;14.60;77.20
1786;DHT22;890;48.158;11.540;2023-08-08T04:55:01;14.60;77.30
1786;DHT22;890;48.158;11.540;2023-08-08T04:57:26;14.60;77.30
1786;DHT22;890;48.158;11.540;2023-08-08T04:59:52;14.70;77.40
1786;DHT22;890;48.158;11.540;2023-08-08T05:02:18;16.40;79.20
1786;DHT22;890;48.158;11.540;2023-08-08T05:04:43;14.70;77.50
1786;DHT22;890;48.158;11.540;2023-08-08T05:07:09;14.80;77.50
1786;DHT22;890;48.158;11.540;2023-08-08T05:09:34;14.80;77.50
1786;DHT22;890;48.158;11.540;2023-08-08T05:12:01;15.00;77.60
1786;DHT22;890;48.158;11.540;2023-08-08T05:14:27;15.00;77.60
1786;DHT22;890;48.158;11.540;2023-08-08T05:16:53;15.10;77.40
1786;DHT22;890;48.158;11.540;2023-08-08T05:19:18;15.20;77.20
1786;DHT22;890;48.158;11.540;2023-08-08T05:21:44;15.10;77.30
1786;DHT22;890;48.158;11.540;2023-08-08T05:24:09;15.20;77.40
1786;DHT22;890;48.158;11.540;2023-08-08T05:26:35;15.10;78.10
1786;DHT22;890;48.158;11.540;2023-08-08T05:29:00;15.10;77.40
1786;DHT22;890;48.158;11.540;2023-08-08T05:31:26;15.10;77.20
1786;DHT22;890;48.158;11.540;2023-08-08T05:33:52;15.00;77.30
1786;DHT22;890;48.158;11.540;2023-08-08T05:36:18;15.00;77.30
1786;DHT22;890;48.158;11.540;2023-08-08T05:38:43;15.00;77.50
1786;DHT22;890;48.158;11.540;2023-08-08T05:41:09;15.00;77.50
1786;DHT22;890;48.158;11.540;2023-08-08T05:43:34;15.50;78.20
1786;DHT22;890;48.158;11.540;2023-08-08T05:46:00;15.20;77.60
1786;DHT22;890;48.158;11.540;2023-08-08T05:48:26;15.30;77.40
1786;DHT22;890;48.158;11.540;2023-08-08T05:50:51;15.40;77.20
1786;DHT22;890;48.158;11.540;2023-08-08T05:53:17;15.30;77.20
1786;DHT22;890;48.158;11.540;2023-08-08T05:55:43;15.40;77.40
1786;DHT22;890;48.158;11.540;2023-08-08T05:58:09;15.60;77.40
1786;DHT22;890;48.158;11.540;2023-08-08T06:00:35;15.70;77.30
1786;DHT22;890;48.158;11.540;2023-08-08T06:03:01;15.80;76.90
1786;DHT22;890;48.158;11.540;2023-08-08T06:05:27;16.00;76.80
1786;DHT22;890;48.158;11.540;2023-08-08T06:07:53;16.10;76.70
1786;DHT22;890;48.158;11.540;2023-08-08T06:10:21;16.30;77.00
1786;DHT22;890;48.158;11.540;2023-08-08T06:12:46;16.50;76.00
1786;DHT22;890;48.158;11.540;2023-08-08T06:15:12;16.60;75.70
1786;DHT22;890;48.158;11.540;2023-08-08T06:21:00;16.50;74.70
1786;DHT22;890;48.158;11.540;2023-08-08T06:23:25;16.90;75.10
1786;DHT22;890;48.158;11.540;2023-08-08T06:25:51;16.90;74.70
1786;DHT22;890;48.158;11.540;2023-08-08T06:28:16;17.10;75.30
1786;DHT22;890;48.158;11.540;2023-08-08T06:30:42;17.10;74.10
1786;DHT22;890;48.158;11.540;2023-08-08T06:33:07;17.10;74.00
1786;DHT22;890;48.158;11.540;2023-08-08T06:35:33;17.20;73.90
1786;DHT22;890;48.158;11.540;2023-08-08T06:37:59;17.20;73.50
1786;DHT22;890;48.158;11.540;2023-08-08T06:40:25;17.30;73.10
1786;DHT22;890;48.158;11.540;2023-08-08T06:42:50;17.30;72.80
1786;DHT22;890;48.158;11.540;2023-08-08T06:45:16;17.20;72.70
1786;DHT22;890;48.158;11.540;2023-08-08T06:47:42;17.30;72.50
1786;DHT22;890;48.158;11.540;2023-08-08T06:50:07;17.60;72.90
1786;DHT22;890;48.158;11.540;2023-08-08T06:52:33;17.40;72.50
1786;DHT22;890;48.158;11.540;2023-08-08T06:54:59;17.40;72.50
1786;DHT22;890;48.158;11.540;2023-08-08T06:57:24;17.40;72.60
1786;DHT22;890;48.158;11.540;2023-08-08T06:59:50;17.50;72.60
1786;DHT22;890;48.158;11.540;2023-08-08T07:02:19;17.60;72.30
1786;DHT22;890;48.158;11.540;2023-08-08T07:04:45;17.70;72.30
1786;DHT22;890;48.158;11.540;2023-08-08T07:07:11;17.90;72.20
1786;DHT22;890;48.158;11.540;2023-08-08T07:09:37;18.00;72.00
1786;DHT22;890;48.158;11.540;2023-08-08T07:12:03;18.10;71.60
1786;DHT22;890;48.158;11.540;2023-08-08T07:14:29;18.10;70.80
1786;DHT22;890;48.158;11.540;2023-08-08T07:16:55;18.10;70.30
1786;DHT22;890;48.158;11.540;2023-08-08T07:19:21;18.00;70.20
1786;DHT22;890;48.158;11.540;2023-08-08T07:21:47;18.00;69.90
1786;DHT22;890;48.158;11.540;2023-08-08T07:24:12;18.00;70.20
1786;DHT22;890;48.158;11.540;2023-08-08T07:26:38;18.20;70.10
1786;DHT22;890;48.158;11.540;2023-08-08T07:29:04;18.30;69.90
1786;DHT22;890;48.158;11.540;2023-08-08T07:31:31;18.50;69.50
1786;DHT22;890;48.158;11.540;2023-08-08T07:33:57;18.40;68.60
1786;DHT22;890;48.158;11.540;2023-08-08T07:36:22;18.40;68.70
1786;DHT22;890;48.158;11.540;2023-08-08T07:38:48;18.30;68.10
1786;DHT22;890;48.158;11.540;2023-08-08T07:41:14;18.30;68.30
1786;DHT22;890;48.158;11.540;2023-08-08T07:43:39;18.50;67.80
1786;DHT22;890;48.158;11.540;2023-08-08T07:46:05;18.50;67.30
1786;DHT22;890;48.158;11.540;2023-08-08T07:48:31;18.50;67.20
1786;DHT22;890;48.158;11.540;2023-08-08T07:50:56;18.50;66.80
1786;DHT22;890;48.158;11.540;2023-08-08T07:53:22;18.40;66.60
1786;DHT22;890;48.158;11.540;2023-08-08T07:55:47;18.40;66.50
1786;DHT22;890;48.158;11.540;2023-08-08T07:58:13;18.30;66.20
1786;DHT22;890;48.158;11.540;2023-08-08T08:00:39;18.40;66.40
1786;DHT22;890;48.158;11.540;2023-08-08T08:03:05;18.50;66.20
1786;DHT22;890;48.158;11.540;2023-08-08T08:05:31;18.40;65.80
1786;DHT22;890;48.158;11.540;2023-08-08T08:07:57;18.40;66.30
1786;DHT22;890;48.158;11.540;2023-08-08T08:10:23;18.50;65.40
1786;DHT22;890;48.158;11.540;2023-08-08T08:12:48;18.50;65.50
1786;DHT22;890;48.158;11.540;2023-08-08T08:15:14;18.70;65.60
1786;DHT22;890;48.158;11.540;2023-08-08T08:17:39;19.00;65.10
1786;DHT22;890;48.158;11.540;2023-08-08T08:20:07;19.00;64.50
1786;DHT22;890;48.158;11.540;2023-08-08T08:22:36;19.10;64.30
1786;DHT22;890;48.158;11.540;2023-08-08T08:25:04;19.10;64.10
1786;DHT22;890;48.158;11.540;2023-08-08T08:27:30;19.10;64.20
1786;DHT22;890;48.158;11.540;2023-08-08T08:29:56;19.10;64.00
1786;DHT22;890;48.158;11.540;2023-08-08T08:32:22;19.20;64.10
1786;DHT22;890;48.158;11.540;2023-08-08T08:34:47;19.30;63.90
1786;DHT22;890;48.158;11.540;2023-08-08T08:37:13;19.40;63.70
1786;DHT22;890;48.158;11.540;2023-08-08T08:39:38;19.50;64.10
1786;DHT22;890;48.158;11.540;2023-08-08T08:42:05;19.50;62.40
1786;DHT22;890;48.158;11.540;2023-08-08T08:44:32;19.40;61.80
1786;DHT22;890;48.158;11.540;2023-08-08T08:47:05;19.50;61.70
1786;DHT22;890;48.158;11.540;2023-08-08T08:49:38;19.40;61.30
1786;DHT22;890;48.158;11.540;2023-08-08T08:52:04;19.50;61.50
1786;DHT22;890;48.158;11.540;2023-08-08T08:54:31;19.60;61.80
1786;DHT22;890;48.158;11.540;2023-08-08T08:56:57;19.80;61.50
1786;DHT22;890;48.158;11.540;2023-08-08T08:59:23;19.90;60.90
1786;DHT22;890;48.158;11.540;2023-08-08T09:01:50;20.00;61.80
1786;DHT22;890;48.158;11.540;2023-08-08T09:04:18;20.10;60.70
1786;DHT22;890;48.158;11.540;2023-08-08T09:06:47;20.00;59.50
1786;DHT22;890;48.158;11.540;2023-08-08T09:09:13;20.00;59.20
1786;DHT22;890;48.158;11.540;2023-08-08T09:11:45;20.10;59.60
1786;DHT22;890;48.158;11.540;2023-08-08T09:14:22;20.10;59.20
1786;DHT22;890;48.158;11.540;2023-08-08T09:16:49;20.00;58.60
1786;DHT22;890;48.158;11.540;2023-08-08T09:19:16;20.10;58.70
1786;DHT22;890;48.158;11.540;2023-08-08T09:21:43;20.20;58.70
1786;DHT22;890;48.158;11.540;2023-08-08T09:24:09;20.30;58.40
1786;DHT22;890;48.158;11.540;2023-08-08T09:26:35;20.20;58.00
1786;DHT22;890;48.158;11.540;2023-08-08T09:29:03;20.30;57.90
1786;DHT22;890;48.158;11.540;2023-08-08T09:31:29;20.30;58.00
1786;DHT22;890;48.158;11.540;2023-08-08T09:33:59;20.50;57.90
1786;DHT22;890;48.158;11.540;2023-08-08T09:36:24;20.60;57.40
1786;DHT22;890;48.158;11.540;2023-08-08T09:38:51;20.70;57.30
1786;DHT22;890;48.158;11.540;2023-08-08T09:41:17;20.70;57.30
1786;DHT22;890;48.158;11.540;2023-08-08T09:43:47;21.00;57.70
1786;DHT22;890;48.158;11.540;2023-08-08T09:46:12;21.30;57.90
1786;DHT22;890;48.158;11.540;2023-08-08T09:48:39;21.30;57.00
1786;DHT22;890;48.158;11.540;2023-08-08T09:51:06;21.30;56.90
1786;DHT22;890;48.158;11.540;2023-08-08T09:53:33;21.70;60.00
1786;DHT22;890;48.158;11.540;2023-08-08T09:56:02;22.40;60.50
1786;DHT22;890;48.158;11.540;2023-08-08T09:58:29;22.70;56.40
1786;DHT22;890;48.158;11.540;2023-08-08T10:00:55;22.60;55.50
1786;DHT22;890;48.158;11.540;2023-08-08T10:03:21;22.50;55.00
1786;DHT22;890;48.158;11.540;2023-08-08T10:05:47;22.80;54.80
1786;DHT22;890;48.158;11.540;2023-08-08T10:08:15;22.80;53.30
1786;DHT22;890;48.158;11.540;2023-08-08T10:10:42;22.50;53.20
1786;DHT22;890;48.158;11.540;2023-08-08T10:13:10;22.90;55.90
1786;DHT22;890;48.158;11.540;2023-08-08T10:15:39;23.20;54.20
1786;DHT22;890;48.158;11.540;2023-08-08T10:18:06;22.90;51.40
1786;DHT22;890;48.158;11.540;2023-08-08T10:20:32;22.60;51.80
1786;DHT22;890;48.158;11.540;2023-08-08T10:23:02;23.00;54.00
1786;DHT22;890;48.158;11.540;2023-08-08T10:25:30;23.60;53.50
1786;DHT22;890;48.158;11.540;2023-08-08T10:28:22;24.40;52.90
1786;DHT22;890;48.158;11.540;2023-08-08T10:30:55;24.70;51.10
1786;DHT22;890;48.158;11.540;2023-08-08T10:33:40;25.20;50.50
1786;DHT22;890;48.158;11.540;2023-08-08T10:36:07;25.20;49.60
1786;DHT22;890;48.158;11.540;2023-08-08T10:38:46;25.60;49.70
1786;DHT22;890;48.158;11.540;2023-08-08T10:41:21;25.70;48.30
1786;DHT22;890;48.158;11.540;2023-08-08T10:43:53;25.50;46.70
1786;DHT22;890;48.158;11.540;2023-08-08T10:46:30;25.00;46.40
1786;DHT22;890;48.158;11.540;2023-08-08T10:48:58;25.00;46.90
1786;DHT22;890;48.158;11.540;2023-08-08T10:53:58;25.40;46.10
1786;DHT22;890;48.158;11.540;2023-08-08T10:56:24;25.50;45.60
1786;DHT22;890;48.158;11.540;2023-08-08T10:58:49;25.40;46.00
1786;DHT22;890;48.158;11.540;2023-08-08T11:01:15;25.20;44.30
1786;DHT22;890;48.158;11.540;2023-08-08T11:03:42;24.70;44.90
1786;DHT22;890;48.158;11.540;2023-08-08T11:06:10;24.40;45.60
1786;DHT22;890;48.158;11.540;2023-08-08T11:08:37;24.50;45.90
1786;DHT22;890;48.158;11.540;2023-08-08T11:11:06;25.00;45.50
1786;DHT22;890;48.158;11.540;2023-08-08T11:13:31;25.20;44.70
1786;DHT22;890;48.158;11.540;2023-08-08T11:15:57;25.00;44.00
1786;DHT22;890;48.158;11.540;2023-08-08T11:18:23;25.00;44.50
1786;DHT22;890;48.158;11.540;2023-08-08T11:20:50;25.20;44.80
1786;DHT22;890;48.158;11.540;2023-08-08T11:23:16;25.30;43.70
1786;DHT22;890;48.158;11.540;2023-08-08T11:25:45;25.00;43.40
1786;DHT22;890;48.158;11.540;2023-08-08T11:28:11;25.00;44.30
1786;DHT22;890;48.158;11.540;2023-08-08T11:30:42;25.20;44.20
1786;DHT22;890;48.158;11.540;2023-08-08T11:33:08;25.10;43.00
1786;DHT22;890;48.158;11.540;2023-08-08T11:35:34;25.10;42.70
1786;DHT22;890;48.158;11.540;2023-08-08T11:38:00;25.20;42.80
1786;DHT22;890;48.158;11.540;2023-08-08T11:40:28;25.60;43.10
1786;DHT22;890;48.158;11.540;2023-08-08T11:42:55;25.80;42.40
1786;DHT22;890;48.158;11.540;2023-08-08T11:45:22;26.30;42.20
1786;DHT22;890;48.158;11.540;2023-08-08T11:47:52;26.50;41.00
1786;DHT22;890;48.158;11.540;2023-08-08T11:50:20;26.40;40.80
1786;DHT22;890;48.158;11.540;2023-08-08T11:52:49;26.30;40.80
1786;DHT22;890;48.158;11.540;2023-08-08T11:55:15;26.40;41.60
1786;DHT22;890;48.158;11.540;2023-08-08T11:57:41;26.50;41.20
1786;DHT22;890;48.158;11.540;2023-08-08T12:00:08;26.70;41.20
1786;DHT22;890;48.158;11.540;2023-08-08T12:02:35;27.20;39.60
1786;DHT22;890;48.158;11.540;2023-08-08T12:05:08;27.50;39.30
1786;DHT22;890;48.158;11.540;2023-08-08T12:07:36;27.30;38.50
1786;DHT22;890;48.158;11.540;2023-08-08T12:10:05;27.40;38.40
1786;DHT22;890;48.158;11.540;2023-08-08T12:12:32;27.30;38.10
1786;DHT22;890;48.158;11.540;2023-08-08T12:15:07;27.40;37.90
1786;DHT22;890;48.158;11.540;2023-08-08T12:17:32;27.30;37.80
1786;DHT22;890;48.158;11.540;2023-08-08T12:20:04;27.50;37.60
1786;DHT22;890;48.158;11.540;2023-08-08T12:22:33;27.60;36.20
1786;DHT22;890;48.158;11.540;2023-08-08T12:24:59;27.20;36.70
1786;DHT22;890;48.158;11.540;2023-08-08T12:27:25;27.20;37.10
1786;DHT22;890;48.158;11.540;2023-08-08T12:29:51;27.00;37.00
1786;DHT22;890;48.158;11.540;2023-08-08T12:32:20;26.30;37.00
1786;DHT22;890;48.158;11.540;2023-08-08T12:34:49;25.80;37.70
1786;DHT22;890;48.158;11.540;2023-08-08T12:37:15;25.90;38.60
1786;DHT22;890;48.158;11.540;2023-08-08T12:39:40;26.10;38.20
1786;DHT22;890;48.158;11.540;2023-08-08T12:42:06;26.10;37.60
1786;DHT22;890;48.158;11.540;2023-08-08T12:44:32;25.90;37.00
1786;DHT22;890;48.158;11.540;2023-08-08T12:46:58;25.60;37.00
1786;DHT22;890;48.158;11.540;2023-08-08T12:49:23;25.50;37.30
1786;DHT22;890;48.158;11.540;2023-08-08T12:51:50;25.20;37.40
1786;DHT22;890;48.158;11.540;2023-08-08T12:54:16;24.80;37.60
1786;DHT22;890;48.158;11.540;2023-08-08T12:56:41;24.30;38.30
1786;DHT22;890;48.158;11.540;2023-08-08T12:59:07;24.20;38.80
1786;DHT22;890;48.158;11.540;2023-08-08T13:01:32;24.00;39.00
1786;DHT22;890;48.158;11.540;2023-08-08T13:03:58;24.00;40.10
1786;DHT22;890;48.158;11.540;2023-08-08T13:06:23;23.90;40.10
1786;DHT22;890;48.158;11.540;2023-08-08T13:08:49;23.80;39.70
1786;DHT22;890;48.158;11.540;2023-08-08T13:11:14;22.10;38.50
1786;DHT22;890;48.158;11.540;2023-08-08T13:13:40;23.90;39.50
1786;DHT22;890;48.158;11.540;2023-08-08T13:16:06;23.80;39.70
1786;DHT22;890;48.158;11.540;2023-08-08T13:18:31;23.80;40.20
1786;DHT22;890;48.158;11.540;2023-08-08T13:20:57;23.90;40.40
1786;DHT22;890;48.158;11.540;2023-08-08T13:23:23;23.80;40.80
1786;DHT22;890;48.158;11.540;2023-08-08T13:25:49;23.80;40.30
1786;DHT22;890;48.158;11.540;2023-08-08T13:28:14;23.80;40.30
1786;DHT22;890;48.158;11.540;2023-08-08T13:30:40;23.60;40.40
1786;DHT22;890;48.158;11.540;2023-08-08T13:33:08;23.50;41.00
1786;DHT22;890;48.158;11.540;2023-08-08T13:35:34;23.50;41.00
1786;DHT22;890;48.158;11.540;2023-08-08T13:37:59;23.50;40.90
1786;DHT22;890;48.158;11.540;2023-08-08T13:40:25;23.60;41.20
1786;DHT22;890;48.158;11.540;2023-08-08T13:42:51;23.50;41.10
1786;DHT22;890;48.158;11.540;2023-08-08T13:45:20;23.30;40.90
1786;DHT22;890;48.158;11.540;2023-08-08T13:47:46;23.10;41.10
1786;DHT22;890;48.158;11.540;2023-08-08T13:50:13;23.20;41.40
1786;DHT22;890;48.158;11.540;2023-08-08T13:52:40;23.20;41.60
1786;DHT22;890;48.158;11.540;2023-08-08T13:55:07;23.00;41.50
1786;DHT22;890;48.158;11.540;2023-08-08T13:57:32;23.00;41.70
1786;DHT22;890;48.158;11.540;2023-08-08T13:59:58;23.00;41.80
1786;DHT22;890;48.158;11.540;2023-08-08T14:02:24;23.00;42.20
1786;DHT22;890;48.158;11.540;2023-08-08T14:04:49;23.20;42.10
1786;DHT22;890;48.158;11.540;2023-08-08T14:07:15;23.20;42.10
1786;DHT22;890;48.158;11.540;2023-08-08T14:09:40;23.30;42.10
1786;DHT22;890;48.158;11.540;2023-08-08T14:12:06;23.30;42.20
1786;DHT22;890;48.158;11.540;2023-08-08T14:14:32;23.30;42.30
1786;DHT22;890;48.158;11.540;2023-08-08T14:16:57;23.30;42.20
1786;DHT22;890;48.158;11.540;2023-08-08T14:19:23;23.20;42.30
1786;DHT22;890;48.158;11.540;2023-08-08T14:21:49;23.00;42.20
1786;DHT22;890;48.158;11.540;2023-08-08T14:24:15;23.10;42.70
1786;DHT22;890;48.158;11.540;2023-08-08T14:26:40;23.10;42.80
1786;DHT22;890;48.158;11.540;2023-08-08T14:29:06;23.20;42.90
1786;DHT22;890;48.158;11.540;2023-08-08T14:31:31;23.20;43.00
1786;DHT22;890;48.158;11.540;2023-08-08T14:33:57;23.20;42.90
1786;DHT22;890;48.158;11.540;2023-08-08T14:36:23;23.50;43.10
1786;DHT22;890;48.158;11.540;2023-08-08T14:38:48;23.60;42.90
1786;DHT22;890;48.158;11.540;2023-08-08T14:41:14;23.50;43.10
1786;DHT22;890;48.158;11.540;2023-08-08T14:43:43;23.60;43.30
1786;DHT22;890;48.158;11.540;2023-08-08T14:46:08;23.40;43.30
1786;DHT22;890;48.158;11.540;2023-08-08T14:48:34;23.30;43.50
1786;DHT22;890;48.158;11.540;2023-08-08T14:51:03;23.30;43.60
1786;DHT22;890;48.158;11.540;2023-08-08T14:53:29;23.20;43.50
1786;DHT22;890;48.158;11.540;2023-08-08T14:55:54;23.20;43.50
1786;DHT22;890;48.158;11.540;2023-08-08T14:58:20;23.20;43.90
1786;DHT22;890;48.158;11.540;2023-08-08T15:00:45;23.30;44.00
1786;DHT22;890;48.158;11.540;2023-08-08T15:03:11;23.40;43.60
1786;DHT22;890;48.158;11.540;2023-08-08T15:05:39;23.40;43.60
1786;DHT22;890;48.158;11.540;2023-08-08T15:08:05;23.50;43.40
1786;DHT22;890;48.158;11.540;2023-08-08T15:10:31;23.60;43.10
1786;DHT22;890;48.158;11.540;2023-08-08T15:12:57;23.40;43.10
1786;DHT22;890;48.158;11.540;2023-08-08T15:15:22;23.20;43.30
1786;DHT22;890;48.158;11.540;2023-08-08T15:17:49;23.30;43.90
1786;DHT22;890;48.158;11.540;2023-08-08T15:20:15;23.40;44.00
1786;DHT22;890;48.158;11.540;2023-08-08T15:22:41;23.40;43.80
1786;DHT22;890;48.158;11.540;2023-08-08T15:25:07;23.40;44.10
1786;DHT22;890;48.158;11.540;2023-08-08T15:27:32;23.30;44.00
1786;DHT22;890;48.158;11.540;2023-08-08T15:29:58;23.10;44.10
1786;DHT22;890;48.158;11.540;2023-08-08T15:32:23;23.10;44.10
1786;DHT22;890;48.158;11.540;2023-08-08T15:34:49;23.10;44.10
1786;DHT22;890;48.158;11.540;2023-08-08T15:37:14;23.10;44.20
1786;DHT22;890;48.158;11.540;2023-08-08T15:39:40;23.20;44.20
1786;DHT22;890;48.158;11.540;2023-08-08T15:42:06;23.30;44.40
1786;DHT22;890;48.158;11.540;2023-08-08T15:44:31;23.30;44.60
1786;DHT22;890;48.158;11.540;2023-08-08T15:46:57;23.30;44.60
1786;DHT22;890;48.158;11.540;2023-08-08T15:49:23;23.30;44.60
1786;DHT22;890;48.158;11.540;2023-08-08T15:51:49;23.40;44.50
1786;DHT22;890;48.158;11.540;2023-08-08T15:54:14;23.60;44.80
1786;DHT22;890;48.158;11.540;2023-08-08T15:56:40;23.60;44.20
1786;DHT22;890;48.158;11.540;2023-08-08T15:59:06;23.70;44.30
1786;DHT22;890;48.158;11.540;2023-08-08T16:01:32;23.40;44.30
1786;DHT22;890;48.158;11.540;2023-08-08T16:03:58;23.20;44.70